< < Back
Terminal Aerodrome Forecast


Current Version              Previous Versions:   1  2  3  4  5  6  7  8  9  

Terminal Aerodrome Forecast

556
FTUS42 KFFC 140527
TAFPDK
TAF
KPDK 140527Z 1406/1506 03004KT P6SM FEW200
     FM141200 10006KT P6SM BKN150
     FM142100 13008KT P6SM BKN100
     FM150000 11007KT P6SM BKN060=

Latest METAR

260
SAUS70 KWBC 140800 RRB
MTRPDK
METAR KPDK 140753Z AUTO 00000KT 10SM CLR M03/M13 A3034 RMK AO2 SLP293
T10281128 TSNO


USA.gov is the U.S. government's official web portal to all federal, state and local government web resources and services.